Urb Bosch, Puerto Rico
Current Conditions -  °F | °C
As of 2:56 PM on Friday 28 Nov 2014 (Local Time) from TJSJ Reporting Station
Few Clouds Few Clouds  
Wind Chill: 84°   Ceiling: Unl
Heat Index: 89°   Visibility: 10mi
Dew Point: 71°   Wind: 12mph
Humidity: 65%   Direction: 50°NE
Pressure: 29.91"   Gusts: NA
Location:  18.1193°N, 66.1642°W
Report Text: TJSJ 281856Z 05010KT 10SM FEW037 29/22 A2991 RMK AO2 SLP127 T02890217
Loading
Personal Weather Stations






























Interactive Weather Map New forecast layout! Learn more

10-Day Weather Forecast

Advertisements
Track Severe Weather on mobile